Time;durP1;ratioP1;P1;durP2;ratioP2;P2;SDS_P1;SDS_P2;PMS_P1;PMS_P2;Temp;Humidity;BMP_temperature;BMP_pressure;BME280_temperature;BME280_humidity;BME280_pressure;Samples;Min_cycle;Max_cycle;Signal;HPM_P1;HPM_P2
2023/04/23 00:00:25;;;;;;;5.40;3.90;;;;;;;12.37;48.20;100110.77;109057;1257;65083;-68
2023/04/23 00:02:56;;;;;;;12.80;9.40;;;;;;;12.39;48.40;100117.83;109150;1257;58403;-68
2023/04/23 00:05:27;;;;;;;17.30;11.40;;;;;;;12.35;49.12;100122.70;109024;1257;65091;-67
2023/04/23 00:07:59;;;;;;;17.10;10.90;;;;;;;12.29;49.70;100123.95;109052;1257;58174;-67
2023/04/23 00:10:30;;;;;;;15.20;11.20;;;;;;;12.24;49.98;100127.23;109079;1257;58213;-68
2023/04/23 00:13:03;;;;;;;17.70;13.10;;;;;;;12.23;50.21;100127.02;109084;1257;66195;-69
2023/04/23 00:15:33;;;;;;;17.60;12.40;;;;;;;12.21;50.62;100130.05;109075;1256;58232;-68
2023/04/23 00:18:03;;;;;;;19.10;12.10;;;;;;;12.19;50.91;100130.92;109151;1257;65488;-67
2023/04/23 00:20:35;;;;;;;18.20;12.00;;;;;;;12.18;51.31;100127.69;109137;1257;58136;-68
2023/04/23 00:23:06;;;;;;;15.20;10.60;;;;;;;12.16;51.35;100127.67;109153;1257;58278;-70
2023/04/23 00:25:36;;;;;;;15.40;11.20;;;;;;;12.14;51.68;100124.95;109070;1257;66140;-68
2023/04/23 00:28:08;;;;;;;15.00;11.20;;;;;;;12.14;51.75;100126.94;109033;1257;59065;-68
2023/04/23 00:30:39;;;;;;;17.40;11.70;;;;;;;12.14;51.59;100129.64;109087;1257;63892;-73
2023/04/23 00:40:41;;;;;;;13.60;9.80;;;;;;;12.01;52.00;100133.70;102912;1296;600258;-68
2023/04/23 00:43:10;;;;;;;14.40;10.30;;;;;;;11.95;51.89;100130.02;105021;1266;59200;-68
2023/04/23 00:45:39;;;;;;;15.90;10.40;;;;;;;11.90;51.87;100133.81;104741;1267;59361;-67
2023/04/23 00:48:07;;;;;;;13.90;10.00;;;;;;;11.86;52.14;100138.45;104704;1266;63777;-68
2023/04/23 00:50:36;;;;;;;14.80;10.40;;;;;;;11.84;52.35;100138.93;104682;1271;59826;-67
2023/04/23 00:53:04;;;;;;;16.10;10.90;;;;;;;11.82;52.40;100137.95;104896;1271;64338;-67
2023/04/23 00:55:32;;;;;;;14.20;10.20;;;;;;;11.79;52.55;100138.38;104870;1268;159593;-68
2023/04/23 00:58:00;;;;;;;13.60;10.20;;;;;;;11.76;52.72;100140.48;104723;1263;60372;-68
2023/04/23 01:00:29;;;;;;;14.00;10.60;;;;;;;11.74;52.82;100141.63;104864;1266;65078;-69
2023/04/23 01:02:57;;;;;;;17.50;11.60;;;;;;;11.72;52.91;100142.66;104895;1269;59757;-67
2023/04/23 01:05:26;;;;;;;16.30;11.50;;;;;;;11.70;53.01;100142.85;104875;1266;65742;-69
2023/04/23 01:07:55;;;;;;;16.50;11.50;;;;;;;11.68;53.24;100141.73;104988;1268;59654;-67
2023/04/23 01:10:23;;;;;;;17.10;11.80;;;;;;;11.67;53.46;100139.20;104940;1264;59906;-67
2023/04/23 01:12:51;;;;;;;15.50;11.50;;;;;;;11.65;53.73;100140.40;105060;1264;65744;-67
2023/04/23 01:15:20;;;;;;;20.00;12.30;;;;;;;11.64;53.73;100140.51;104980;1266;59744;-68
2023/04/23 01:17:48;;;;;;;23.10;12.40;;;;;;;11.63;53.71;100140.25;104808;1266;65526;-67
2023/04/23 01:20:16;;;;;;;20.80;13.40;;;;;;;11.63;53.81;100141.52;105286;1268;59589;-70
2023/04/23 01:22:44;;;;;;;19.60;12.80;;;;;;;11.62;53.88;100144.44;105067;1263;59772;-68
2023/04/23 01:25:13;;;;;;;24.00;15.10;;;;;;;11.58;54.01;100141.74;104862;1268;65655;-70
2023/04/23 01:27:41;;;;;;;21.00;14.00;;;;;;;11.52;54.25;100142.34;104911;1268;59970;-67
2023/04/23 01:30:10;;;;;;;21.70;14.30;;;;;;;11.47;54.41;100144.48;104853;1271;64459;-68
2023/04/23 01:32:39;;;;;;;20.90;14.60;;;;;;;11.46;54.62;100142.99;104810;1266;59745;-68
2023/04/23 01:35:09;;;;;;;21.60;14.60;;;;;;;11.43;54.93;100140.58;104803;1265;60387;-68
2023/04/23 01:37:38;;;;;;;22.70;13.70;;;;;;;11.40;55.10;100141.52;104726;1265;65029;-67
2023/04/23 01:40:07;;;;;;;14.90;9.00;;;;;;;11.40;55.18;100146.70;104816;1270;59575;-69
2023/04/23 01:42:36;;;;;;;11.20;6.60;;;;;;;11.37;55.19;100148.86;104869;1266;65181;-69
2023/04/23 01:45:06;;;;;;;11.50;6.00;;;;;;;11.33;55.39;100145.55;105042;1265;59646;-67
2023/04/23 01:47:35;;;;;;;15.10;5.40;;;;;;;11.30;55.42;100149.29;104766;1265;59676;-69
2023/04/23 01:50:05;;;;;;;6.30;4.50;;;;;;;11.27;55.54;100150.65;104710;1266;65766;-67
2023/04/23 01:52:33;;;;;;;6.30;4.60;;;;;;;11.25;55.59;100152.23;104676;1273;59580;-67
2023/04/23 01:55:03;;;;;;;7.40;4.50;;;;;;;11.25;55.34;100150.98;104488;1274;65311;-68
2023/04/23 01:57:32;;;;;;;7.60;4.50;;;;;;;11.28;54.56;100152.49;104639;1274;59660;-67
2023/04/23 02:00:10;;;;;;;6.10;4.20;;;;;;;11.32;54.27;100156.92;104782;1265;59672;-68
2023/04/23 02:02:42;;;;;;;7.60;4.20;;;;;;;11.33;54.02;100153.77;104625;1271;65933;-67
2023/04/23 02:05:17;;;;;;;6.10;4.40;;;;;;;11.35;53.91;100154.73;105155;1271;59722;-67
2023/04/23 02:07:46;;;;;;;5.60;4.30;;;;;;;11.36;53.75;100156.70;104675;1271;65346;-67
2023/04/23 02:10:15;;;;;;;5.50;4.40;;;;;;;11.39;53.24;100155.59;104771;1271;59560;-67
2023/04/23 02:12:44;;;;;;;7.00;4.60;;;;;;;11.42;52.99;100157.27;104722;1270;59672;-74
2023/04/23 02:15:13;;;;;;;6.00;4.30;;;;;;;11.45;53.09;100157.36;105312;1264;64253;-70
2023/04/23 02:17:41;;;;;;;8.00;4.40;;;;;;;11.46;53.47;100164.83;105270;1263;59663;-67
2023/04/23 02:20:10;;;;;;;7.60;4.90;;;;;;;11.47;53.38;100167.58;105137;1259;65819;-67
2023/04/23 02:22:39;;;;;;;5.80;4.40;;;;;;;11.48;52.75;100165.36;105258;1267;59563;-68
2023/04/23 02:25:08;;;;;;;10.90;5.00;;;;;;;11.49;52.06;100161.60;105375;1260;60109;-66
2023/04/23 02:27:36;;;;;;;8.40;4.90;;;;;;;11.52;51.26;100161.58;105120;1263;65661;-68
2023/04/23 02:30:07;;;;;;;7.90;5.00;;;;;;;11.57;50.88;100159.69;105213;1263;59981;-68
2023/04/23 02:32:36;;;;;;;9.40;4.70;;;;;;;11.60;50.51;100161.86;105351;1263;65421;-71
2023/04/23 02:35:05;;;;;;;8.80;4.70;;;;;;;11.62;50.28;100164.35;105088;1259;59904;-67
2023/04/23 02:37:35;;;;;;;6.90;4.90;;;;;;;11.62;50.52;100165.27;105814;1259;59817;-69
2023/04/23 02:40:05;;;;;;;7.30;4.80;;;;;;;11.59;50.75;100168.17;106420;1260;64944;-67
2023/04/23 02:42:33;;;;;;;8.30;4.80;;;;;;;11.55;51.10;100169.21;107266;1259;59786;-69
2023/04/23 02:45:02;;;;;;;7.70;4.40;;;;;;;11.51;51.14;100167.05;108777;1259;65835;-75
2023/04/23 02:47:30;;;;;;;6.70;4.30;;;;;;;11.46;51.52;100170.88;106630;1260;61035;-66
2023/04/23 02:50:01;;;;;;;7.40;4.40;;;;;;;11.38;51.93;100170.83;105227;1260;59768;-67
2023/04/23 02:52:32;;;;;;;6.20;4.10;;;;;;;11.30;52.08;100169.23;105272;1260;65914;-68
2023/04/23 02:55:01;;;;;;;7.60;4.20;;;;;;;11.23;52.39;100172.46;105225;1264;59656;-68
2023/04/23 02:57:29;;;;;;;9.00;4.80;;;;;;;11.18;52.60;100172.23;105218;1259;65257;-68
2023/04/23 02:59:58;;;;;;;7.20;4.80;;;;;;;11.10;52.76;100169.37;105480;1263;59696;-67
2023/04/23 03:02:31;;;;;;;7.10;4.30;;;;;;;11.03;53.14;100175.07;105356;1261;59648;-67
2023/04/23 03:05:00;;;;;;;5.60;4.20;;;;;;;10.98;53.39;100175.33;105123;1263;65909;-70
2023/04/23 03:07:29;;;;;;;7.60;4.80;;;;;;;10.93;53.59;100174.73;105216;1262;60010;-67
2023/04/23 03:09:57;;;;;;;8.20;4.70;;;;;;;10.88;53.84;100176.52;105376;1259;65275;-68
2023/04/23 03:12:26;;;;;;;6.00;4.70;;;;;;;10.86;53.97;100178.45;105248;1263;59600;-68
2023/04/23 03:14:55;;;;;;;6.80;4.80;;;;;;;10.82;54.34;100175.55;105234;1259;59760;-67
2023/04/23 03:17:24;;;;;;;5.40;4.40;;;;;;;10.80;54.56;100181.38;105189;1263;65664;-70
2023/04/23 03:19:52;;;;;;;7.30;4.70;;;;;;;10.80;54.52;100183.30;105271;1264;59912;-68
2023/04/23 03:22:21;;;;;;;7.00;4.80;;;;;;;10.80;54.55;100188.08;105353;1261;65235;-67
2023/04/23 03:24:49;;;;;;;7.50;4.60;;;;;;;10.78;54.87;100191.92;105157;1261;59639;-69
2023/04/23 03:27:18;;;;;;;7.00;5.00;;;;;;;10.78;55.11;100193.73;105147;1260;59569;-67
2023/04/23 03:29:46;;;;;;;10.60;4.70;;;;;;;10.77;54.98;100199.80;105100;1265;65838;-67
2023/04/23 03:32:15;;;;;;;7.40;5.00;;;;;;;10.76;54.75;100201.10;105241;1259;59559;-68
2023/04/23 03:34:43;;;;;;;7.70;5.10;;;;;;;10.75;54.72;100206.08;105274;1260;65293;-67
2023/04/23 03:37:12;;;;;;;8.70;5.30;;;;;;;10.75;54.80;100207.91;105478;1259;59752;-68
2023/04/23 03:39:41;;;;;;;7.50;5.50;;;;;;;10.74;54.97;100208.34;105365;1258;59720;-69
2023/04/23 03:42:10;;;;;;;7.70;5.50;;;;;;;10.76;54.98;100206.91;105659;1258;65991;-67
2023/04/23 03:44:39;;;;;;;9.20;6.00;;;;;;;10.77;55.19;100208.92;105240;1262;59619;-67
2023/04/23 03:47:08;;;;;;;8.30;6.10;;;;;;;10.80;55.35;100209.73;105273;1264;66009;-68
2023/04/23 03:49:37;;;;;;;11.50;6.60;;;;;;;10.84;55.44;100211.88;105533;1262;59651;-68
2023/04/23 03:52:06;;;;;;;8.40;6.50;;;;;;;10.87;55.70;100214.62;105276;1262;59697;-67
2023/04/23 03:54:36;;;;;;;9.40;6.50;;;;;;;10.91;55.93;100220.83;105240;1260;64946;-67
2023/04/23 03:57:13;;;;;;;10.90;6.40;;;;;;;10.94;55.98;100220.41;105322;1261;59628;-69
2023/04/23 04:00:00;;;;;;;10.20;6.30;;;;;;;10.97;56.00;100219.77;105192;1259;65847;-68
2023/04/23 04:02:29;;;;;;;9.20;6.10;;;;;;;11.00;55.97;100225.20;105239;1262;59655;-66
2023/04/23 04:04:58;;;;;;;9.40;6.20;;;;;;;11.05;56.05;100229.36;105016;1259;59704;-69
2023/04/23 04:07:28;;;;;;;10.10;5.80;;;;;;;11.15;56.08;100230.98;105139;1262;65989;-69
2023/04/23 04:09:56;;;;;;;10.10;6.00;;;;;;;11.14;56.22;100230.67;105118;1263;60394;-67
2023/04/23 04:12:28;;;;;;;8.30;6.20;;;;;;;11.17;56.31;100237.79;105053;1260;64581;-71
2023/04/23 04:14:56;;;;;;;9.40;6.30;;;;;;;11.22;56.50;100237.27;105261;1265;59718;-68
2023/04/23 04:17:25;;;;;;;10.60;6.10;;;;;;;11.26;56.53;100238.67;105307;1264;59930;-69
2023/04/23 04:19:53;;;;;;;13.80;6.40;;;;;;;11.33;56.65;100242.34;105512;1269;65928;-69
2023/04/23 04:22:21;;;;;;;9.60;6.20;;;;;;;11.39;56.60;100244.61;105076;1263;59813;-67
2023/04/23 04:24:51;;;;;;;14.70;6.00;;;;;;;11.43;56.45;100245.30;105455;1259;64503;-68
2023/04/23 04:27:19;;;;;;;11.30;5.80;;;;;;;11.46;56.30;100247.81;105320;1263;59659;-68
2023/04/23 04:29:48;;;;;;;10.40;5.90;;;;;;;11.51;56.12;100248.90;105121;1262;59565;-69
2023/04/23 04:32:16;;;;;;;7.70;5.80;;;;;;;11.55;56.03;100252.77;105218;1263;65636;-69
2023/04/23 04:34:45;;;;;;;10.00;6.00;;;;;;;11.62;56.13;100257.28;105456;1263;59630;-69
2023/04/23 04:37:14;;;;;;;8.60;5.80;;;;;;;11.70;56.14;100258.36;105118;1260;64501;-74
2023/04/23 04:39:42;;;;;;;8.70;5.90;;;;;;;11.78;56.17;100259.99;105507;1259;59658;-69
2023/04/23 04:42:11;;;;;;;10.00;6.20;;;;;;;11.86;56.22;100262.15;105487;1257;59510;-68
2023/04/23 04:44:41;;;;;;;11.00;6.60;;;;;;;11.93;56.24;100268.70;105054;1264;65852;-68
2023/04/23 04:47:12;;;;;;;13.60;6.30;;;;;;;12.02;56.31;100265.33;105260;1261;59624;-68
2023/04/23 04:49:40;;;;;;;11.80;6.40;;;;;;;12.10;56.33;100266.23;105096;1258;65528;-68
2023/04/23 04:52:08;;;;;;;9.90;6.40;;;;;;;12.17;56.40;100271.92;105285;1257;60542;-75
2023/04/23 04:54:37;;;;;;;9.00;5.60;;;;;;;12.24;56.44;100269.38;105242;1258;60598;-67
2023/04/23 04:57:05;;;;;;;7.90;6.20;;;;;;;12.31;56.17;100269.96;105537;1262;66459;-69
2023/04/23 04:59:34;;;;;;;9.40;6.50;;;;;;;12.37;56.13;100268.23;105096;1263;60524;-68
2023/04/23 05:02:02;;;;;;;8.30;6.50;;;;;;;12.43;56.15;100268.94;105574;1263;65290;-70
2023/04/23 05:04:31;;;;;;;8.70;6.50;;;;;;;12.50;56.18;100268.45;105319;1257;60419;-68
2023/04/23 05:06:59;;;;;;;9.80;6.80;;;;;;;12.59;56.22;100274.54;105227;1262;60432;-68
2023/04/23 05:09:27;;;;;;;12.90;6.80;;;;;;;12.67;56.25;100272.41;105186;1260;66584;-76
2023/04/23 05:11:56;;;;;;;13.70;6.80;;;;;;;12.76;56.46;100273.87;105304;1264;60555;-68
2023/04/23 05:14:25;;;;;;;10.00;6.70;;;;;;;12.86;56.45;100277.75;105297;1262;65542;-67
2023/04/23 05:16:54;;;;;;;11.20;5.90;;;;;;;12.97;56.45;100278.01;105187;1263;61018;-67
2023/04/23 05:19:22;;;;;;;11.80;6.10;;;;;;;13.07;56.57;100282.03;105393;1257;60913;-67
2023/04/23 05:21:50;;;;;;;8.90;5.70;;;;;;;13.17;56.78;100283.77;105124;1262;66943;-68
2023/04/23 05:24:19;;;;;;;7.40;4.80;;;;;;;13.28;56.43;100280.73;105507;1263;60523;-71
2023/04/23 05:26:47;;;;;;;6.40;4.80;;;;;;;13.39;55.57;100273.32;105258;1258;65273;-69
2023/04/23 05:29:18;;;;;;;7.70;4.90;;;;;;;13.50;54.67;100272.83;105122;1261;61221;-68
2023/04/23 05:31:46;;;;;;;7.60;4.80;;;;;;;13.61;53.97;100281.82;105022;1257;60547;-73
2023/04/23 05:34:14;;;;;;;6.60;5.10;;;;;;;13.74;53.50;100288.60;105333;1264;66552;-67
2023/04/23 05:36:43;;;;;;;8.70;5.40;;;;;;;13.84;52.62;100290.14;105172;1262;60569;-68
2023/04/23 05:39:11;;;;;;;9.20;6.00;;;;;;;13.94;51.66;100291.98;105198;1257;65590;-68
2023/04/23 05:41:40;;;;;;;10.30;6.50;;;;;;;14.04;51.16;100290.51;105201;1257;60346;-70
2023/04/23 05:44:08;;;;;;;8.70;6.70;;;;;;;14.14;50.74;100293.29;105050;1257;60533;-69
2023/04/23 05:46:37;;;;;;;9.40;6.50;;;;;;;14.21;50.20;100296.25;105177;1262;66824;-68
2023/04/23 05:49:05;;;;;;;8.90;6.20;;;;;;;14.30;49.95;100293.27;105528;1261;60457;-67
2023/04/23 05:51:34;;;;;;;7.20;5.80;;;;;;;14.39;48.95;100295.11;105061;1257;65586;-67
2023/04/23 05:54:03;;;;;;;8.10;5.50;;;;;;;14.47;48.39;100300.77;105259;1263;60562;-71
2023/04/23 05:56:31;;;;;;;8.20;5.80;;;;;;;14.55;48.45;100301.92;105202;1263;60683;-69
2023/04/23 05:58:59;;;;;;;6.80;5.40;;;;;;;14.66;48.18;100299.66;105272;1262;66758;-68
2023/04/23 06:01:28;;;;;;;8.70;5.70;;;;;;;14.75;47.46;100302.11;105413;1262;60432;-66
2023/04/23 06:03:56;;;;;;;9.60;5.20;;;;;;;14.83;46.99;100306.39;105237;1258;65326;-67
2023/04/23 06:06:25;;;;;;;7.60;5.20;;;;;;;14.93;47.15;100304.19;105183;1263;60385;-68
2023/04/23 06:08:53;;;;;;;8.10;5.00;;;;;;;15.04;46.45;100302.63;105436;1257;60508;-68
2023/04/23 06:11:21;;;;;;;8.10;5.40;;;;;;;15.12;45.93;100302.33;105351;1257;68899;-68
2023/04/23 06:13:50;;;;;;;7.10;5.20;;;;;;;15.21;45.76;100304.61;105502;1262;60523;-74
2023/04/23 06:16:18;;;;;;;7.50;4.90;;;;;;;15.32;45.25;100302.10;105298;1260;64507;-69
2023/04/23 06:18:46;;;;;;;7.20;5.20;;;;;;;15.43;44.60;100303.92;105096;1271;61214;-68
2023/04/23 06:21:14;;;;;;;7.30;5.40;;;;;;;15.54;44.07;100306.23;105337;1264;60376;-67
2023/04/23 06:23:45;;;;;;;9.90;4.90;;;;;;;15.66;43.66;100305.98;105598;1262;66699;-71
2023/04/23 06:26:13;;;;;;;8.90;5.10;;;;;;;15.76;43.74;100310.02;105222;1263;60428;-67
2023/04/23 06:28:42;;;;;;;8.60;4.80;;;;;;;15.87;43.59;100312.44;105460;1262;65543;-68
2023/04/23 06:31:43;;;;;;;8.20;4.60;;;;;;;16.00;43.66;100314.85;105045;1264;60459;-71
2023/04/23 06:34:11;;;;;;;5.70;4.20;;;;;;;16.16;43.30;100317.10;105276;1258;60479;-67
2023/04/23 06:36:42;;;;;;;7.20;4.10;;;;;;;16.31;43.00;100313.90;105650;1258;66660;-66
2023/04/23 06:39:10;;;;;;;5.70;4.00;;;;;;;16.45;42.31;100314.36;105264;1258;60525;-68
2023/04/23 06:41:38;;;;;;;7.20;4.50;;;;;;;16.58;41.60;100317.14;105327;1257;64286;-67
2023/04/23 06:44:13;;;;;;;7.90;4.30;;;;;;;16.70;41.41;100320.16;105180;1264;60526;-67
2023/04/23 06:46:50;;;;;;;6.80;4.40;;;;;;;16.81;41.67;100321.09;105263;1258;60575;-66
2023/04/23 06:49:18;;;;;;;8.20;4.50;;;;;;;16.92;41.28;100321.02;105236;1257;77012;-67
2023/04/23 06:51:47;;;;;;;9.20;4.40;;;;;;;17.02;41.18;100319.77;105009;1263;60466;-68
2023/04/23 06:54:15;;;;;;;5.70;3.60;;;;;;;17.13;40.80;100319.23;105125;1260;64542;-68
2023/04/23 06:56:44;;;;;;;9.50;3.80;;;;;;;17.26;40.54;100319.32;105193;1258;60514;-68
2023/04/23 06:59:12;;;;;;;6.90;4.00;;;;;;;17.39;40.24;100321.08;105153;1258;60393;-67
2023/04/23 07:01:46;;;;;;;10.50;3.70;;;;;;;17.50;39.99;100322.69;105392;1258;66495;-67
2023/04/23 07:04:14;;;;;;;4.90;3.60;;;;;;;17.62;39.70;100323.02;105377;1258;60460;-66
2023/04/23 07:06:43;;;;;;;6.60;3.50;;;;;;;17.73;39.55;100325.00;104976;1263;62786;-67
2023/04/23 07:09:11;;;;;;;10.10;3.50;;;;;;;17.84;39.38;100325.46;105377;1262;60912;-67
2023/04/23 07:11:40;;;;;;;4.90;3.60;;;;;;;17.94;38.87;100327.55;105551;1257;60312;-66
2023/04/23 07:14:08;;;;;;;5.80;3.50;;;;;;;18.04;39.08;100330.16;105710;1261;66661;-75
2023/04/23 07:16:36;;;;;;;6.40;3.80;;;;;;;18.18;39.18;100331.95;105035;1260;61471;-68
2023/04/23 07:19:05;;;;;;;6.40;3.50;;;;;;;18.26;38.44;100332.23;105095;1258;66041;-67
2023/04/23 07:21:33;;;;;;;5.40;3.40;;;;;;;18.31;38.39;100329.57;105118;1257;60428;-67
2023/04/23 07:24:07;;;;;;;6.00;3.50;;;;;;;18.39;38.57;100331.52;105110;1257;60453;-67
2023/04/23 07:26:36;;;;;;;5.40;3.20;;;;;;;18.51;38.38;100333.38;105071;1263;66579;-68
2023/04/23 07:29:06;;;;;;;4.90;3.40;;;;;;;18.62;37.87;100335.14;105178;1262;60498;-67
2023/04/23 07:31:35;;;;;;;5.00;3.50;;;;;;;18.70;37.83;100337.66;105459;1262;65402;-68
2023/04/23 07:34:04;;;;;;;5.00;3.60;;;;;;;18.75;36.85;100337.61;105301;1263;60458;-67
2023/04/23 07:36:32;;;;;;;5.40;3.20;;;;;;;18.79;37.07;100339.27;105422;1257;60481;-69
2023/04/23 07:39:00;;;;;;;5.80;3.90;;;;;;;18.87;37.66;100338.72;105634;1258;65307;-67
2023/04/23 07:41:29;;;;;;;10.40;4.10;;;;;;;18.98;38.18;100342.14;105222;1262;60540;-67
2023/04/23 07:43:57;;;;;;;6.00;4.10;;;;;;;19.07;38.64;100344.23;105390;1257;65681;-68
2023/04/23 07:46:26;;;;;;;6.50;3.70;;;;;;;19.13;39.18;100342.66;105445;1257;60323;-67
2023/04/23 07:48:54;;;;;;;5.70;3.60;;;;;;;19.20;38.70;100345.95;105422;1259;60461;-68
2023/04/23 07:51:25;;;;;;;7.20;3.60;;;;;;;19.26;38.14;100349.05;105285;1258;66588;-69
2023/04/23 07:53:55;;;;;;;5.90;3.90;;;;;;;19.27;38.03;100345.61;105400;1254;60544;-69
2023/04/23 07:56:23;;;;;;;4.00;2.90;;;;;;;19.29;37.74;100347.98;105610;1254;65756;-66
2023/04/23 07:58:55;;;;;;;3.40;2.90;;;;;;;19.30;37.10;100350.10;105610;1254;60421;-68
2023/04/23 08:01:27;;;;;;;4.30;2.20;;;;;;;19.33;35.94;100349.11;105495;1261;60494;-70
2023/04/23 08:03:56;;;;;;;4.10;2.00;;;;;;;19.35;34.93;100347.60;105630;1254;65802;-67
2023/04/23 08:06:28;;;;;;;4.80;2.30;;;;;;;19.37;34.48;100341.29;105507;1257;60762;-69
2023/04/23 08:08:57;;;;;;;6.20;3.30;;;;;;;19.38;34.34;100340.27;105528;1255;65540;-68
2023/04/23 08:11:28;;;;;;;5.00;3.40;;;;;;;19.42;34.77;100335.90;105364;1254;61002;-68
2023/04/23 08:13:56;;;;;;;5.10;3.40;;;;;;;19.48;35.08;100334.85;105324;1254;59156;-69
2023/04/23 08:16:25;;;;;;;6.90;3.20;;;;;;;19.57;35.66;100334.85;105460;1258;67045;-72
2023/04/23 08:18:53;;;;;;;6.70;3.40;;;;;;;19.66;35.56;100332.87;105672;1254;60491;-69
2023/04/23 08:21:34;;;;;;;9.90;3.70;;;;;;;19.76;35.52;100331.19;105704;1254;65182;-70
2023/04/23 08:24:05;;;;;;;4.30;2.80;;;;;;;19.90;35.17;100327.34;105555;1254;60913;-68
2023/04/23 08:26:33;;;;;;;4.90;3.00;;;;;;;20.06;33.79;100326.11;105619;1254;61292;-70
2023/04/23 08:29:03;;;;;;;5.30;2.70;;;;;;;20.23;33.56;100325.30;105916;1258;67218;-70
2023/04/23 08:31:31;;;;;;;4.50;2.80;;;;;;;20.39;32.68;100323.35;105630;1254;61542;-70
2023/04/23 08:34:00;;;;;;;3.10;2.10;;;;;;;20.53;31.58;100325.84;105455;1254;65396;-70
2023/04/23 08:36:28;;;;;;;3.60;1.70;;;;;;;20.58;30.75;100323.56;105405;1254;60569;-72
2023/04/23 08:38:56;;;;;;;3.00;1.90;;;;;;;20.62;30.71;100320.01;105440;1254;60490;-74
2023/04/23 08:41:26;;;;;;;2.80;1.40;;;;;;;20.72;31.07;100322.40;105496;1258;66139;-69
2023/04/23 08:44:00;;;;;;;2.40;1.30;;;;;;;20.86;30.77;100324.59;105804;1255;60509;-68
2023/04/23 08:46:31;;;;;;;3.90;1.30;;;;;;;20.99;30.36;100319.44;105340;1257;65049;-70
2023/04/23 08:48:59;;;;;;;2.40;1.70;;;;;;;21.09;29.35;100318.46;105514;1254;61756;-68
2023/04/23 08:51:29;;;;;;;4.00;1.50;;;;;;;21.19;29.01;100322.64;105418;1254;60517;-68
2023/04/23 08:53:58;;;;;;;3.00;1.60;;;;;;;21.19;28.81;100318.31;105566;1254;64873;-68
2023/04/23 08:56:26;;;;;;;3.20;2.10;;;;;;;21.26;28.52;100319.06;105330;1254;60420;-71
2023/04/23 08:58:54;;;;;;;3.70;1.70;;;;;;;21.34;28.98;100318.33;105700;1256;64003;-70
2023/04/23 09:01:24;;;;;;;4.20;1.40;;;;;;;21.43;28.57;100319.02;105795;1254;60459;-68
2023/04/23 09:03:52;;;;;;;2.20;1.30;;;;;;;21.48;27.59;100317.36;105439;1254;60425;-69
2023/04/23 09:06:21;;;;;;;2.70;1.30;;;;;;;21.49;27.38;100315.05;105422;1257;66796;-72
2023/04/23 09:08:50;;;;;;;4.00;1.50;;;;;;;21.53;27.84;100311.58;105726;1254;60309;-74
2023/04/23 09:11:18;;;;;;;4.10;1.50;;;;;;;21.59;28.25;100310.72;105848;1254;65436;-69
2023/04/23 09:13:46;;;;;;;2.30;1.60;;;;;;;21.68;28.39;100309.55;105215;1258;60705;-68
2023/04/23 09:16:14;;;;;;;5.10;1.50;;;;;;;21.76;28.28;100310.02;106065;1254;60343;-67
2023/04/23 09:18:43;;;;;;;2.00;1.20;;;;;;;21.86;28.27;100306.08;106726;1254;65825;-66
2023/04/23 09:21:11;;;;;;;3.90;1.10;;;;;;;21.99;28.39;100303.30;105519;1257;60441;-67
2023/04/23 09:23:40;;;;;;;2.80;1.20;;;;;;;22.17;28.71;100308.02;105507;1258;65551;-67
2023/04/23 09:26:08;;;;;;;2.50;1.40;;;;;;;22.38;28.58;100306.22;106980;1254;60438;-65
2023/04/23 09:28:36;;;;;;;2.20;1.30;;;;;;;22.58;28.35;100303.15;105668;1257;60761;-65
2023/04/23 09:31:05;;;;;;;2.70;1.30;;;;;;;22.72;27.92;100300.35;105590;1261;66713;-64
2023/04/23 09:33:34;;;;;;;3.80;1.30;;;;;;;22.86;27.90;100301.20;105576;1259;60431;-65
2023/04/23 09:36:10;;;;;;;2.30;1.40;;;;;;;23.02;27.55;100301.40;105598;1254;65349;-65
2023/04/23 09:38:40;;;;;;;4.70;1.40;;;;;;;23.17;27.36;100296.73;105499;1262;60362;-65
2023/04/23 09:41:22;;;;;;;2.90;1.30;;;;;;;23.32;27.51;100290.58;105295;1254;61903;-66
2023/04/23 09:43:54;;;;;;;2.00;1.20;;;;;;;23.53;27.07;100290.99;105571;1257;66468;-65
2023/04/23 09:46:33;;;;;;;5.10;1.30;;;;;;;23.66;26.88;100291.34;105486;1256;60425;-67
2023/04/23 09:49:02;;;;;;;2.10;1.40;;;;;;;23.76;26.58;100292.25;105651;1260;64259;-64
2023/04/23 09:51:31;;;;;;;2.30;1.20;;;;;;;23.78;26.45;100290.13;105617;1260;60511;-65
2023/04/23 09:54:01;;;;;;;2.10;1.30;;;;;;;23.78;26.31;100290.25;105741;1254;60426;-67
2023/04/23 09:56:33;;;;;;;2.10;1.40;;;;;;;23.86;26.16;100291.02;105500;1260;65654;-69
2023/04/23 09:59:01;;;;;;;2.10;1.10;;;;;;;23.94;26.36;100290.63;105490;1260;60467;-66
2023/04/23 10:01:29;;;;;;;4.40;1.20;;;;;;;23.97;25.80;100288.39;105554;1260;65508;-65
2023/04/23 10:03:58;;;;;;;2.40;1.20;;;;;;;23.98;25.90;100285.48;105537;1254;60451;-65
2023/04/23 10:06:30;;;;;;;1.90;1.20;;;;;;;24.01;25.36;100285.55;105489;1254;60447;-65
2023/04/23 10:09:21;;;;;;;9.20;1.30;;;;;;;24.03;25.40;100286.73;105523;1254;66814;-65
2023/04/23 10:12:08;;;;;;;3.60;1.00;;;;;;;24.00;25.17;100287.63;105506;1255;60474;-66
2023/04/23 10:14:58;;;;;;;3.70;1.00;;;;;;;24.02;25.18;100285.84;105497;1261;65564;-66
2023/04/23 10:17:26;;;;;;;2.70;1.20;;;;;;;24.14;24.57;100285.80;105525;1254;60481;-64
2023/04/23 10:19:55;;;;;;;2.70;1.00;;;;;;;24.27;24.78;100284.65;105456;1256;60445;-65
2023/04/23 10:22:23;;;;;;;2.40;1.10;;;;;;;24.37;24.18;100283.98;105547;1254;66510;-65
2023/04/23 10:24:54;;;;;;;6.20;1.10;;;;;;;24.36;24.06;100285.47;105464;1259;60559;-66
2023/04/23 10:27:22;;;;;;;1.60;1.00;;;;;;;24.32;24.32;100286.64;105447;1256;65364;-68
2023/04/23 10:30:10;;;;;;;5.90;1.10;;;;;;;24.23;23.92;100282.66;105332;1260;60422;-65
2023/04/23 10:32:39;;;;;;;1.70;1.20;;;;;;;24.11;24.00;100281.20;105241;1256;60551;-68
2023/04/23 10:35:08;;;;;;;2.80;1.20;;;;;;;24.00;24.36;100283.31;105682;1256;65481;-66
2023/04/23 10:37:36;;;;;;;5.70;1.30;;;;;;;23.89;24.75;100285.33;105625;1256;60510;-65
2023/04/23 10:40:13;;;;;;;1.80;1.20;;;;;;;23.80;25.17;100285.73;105411;1260;65647;-68
2023/04/23 10:42:42;;;;;;;2.40;1.10;;;;;;;23.76;24.69;100285.98;105416;1258;60425;-66
2023/04/23 10:45:15;;;;;;;1.50;1.10;;;;;;;23.69;24.59;100285.36;105598;1254;60469;-66
2023/04/23 10:47:53;;;;;;;1.40;1.10;;;;;;;23.65;24.80;100284.30;105666;1254;66825;-66
2023/04/23 10:50:27;;;;;;;3.30;1.20;;;;;;;23.58;24.45;100279.69;105513;1260;60355;-66
2023/04/23 10:52:56;;;;;;;2.20;1.20;;;;;;;23.49;24.70;100283.08;105556;1256;65568;-65
2023/04/23 10:55:26;;;;;;;4.90;1.40;;;;;;;23.42;24.21;100283.70;105693;1254;60440;-65
2023/04/23 10:58:02;;;;;;;3.90;1.30;;;;;;;23.35;24.12;100280.45;105379;1254;60454;-65
2023/04/23 11:00:40;;;;;;;2.30;1.10;;;;;;;23.43;24.17;100280.13;105507;1260;66458;-66
2023/04/23 11:03:38;;;;;;;2.40;1.20;;;;;;;23.77;24.86;100276.64;105653;1258;60550;-66
2023/04/23 11:06:38;;;;;;;1.90;1.10;;;;;;;24.28;24.25;100273.48;105455;1256;64409;-65
2023/04/23 11:09:44;;;;;;;2.40;1.20;;;;;;;24.77;23.72;100271.75;105406;1256;60435;-69
2023/04/23 11:12:33;;;;;;;1.70;1.30;;;;;;;25.17;22.83;100272.05;105427;1254;61755;-70
2023/04/23 11:15:12;;;;;;;2.10;1.20;;;;;;;25.51;22.66;100268.83;105488;1254;66736;-72
2023/04/23 11:17:43;;;;;;;4.20;1.10;;;;;;;25.83;22.24;100264.54;105429;1256;60492;-67
2023/04/23 11:20:13;;;;;;;1.40;1.00;;;;;;;26.05;21.30;100267.71;105642;1256;64997;-66
2023/04/23 11:22:44;;;;;;;3.50;1.30;;;;;;;26.23;21.32;100271.96;105481;1261;60528;-67
2023/04/23 11:25:21;;;;;;;2.00;1.10;;;;;;;26.46;22.11;100271.88;105476;1258;60388;-67
2023/04/23 11:27:50;;;;;;;4.00;1.50;;;;;;;26.79;21.46;100266.89;105634;1258;66649;-67
2023/04/23 11:30:23;;;;;;;3.40;1.10;;;;;;;27.03;20.60;100269.21;105506;1254;60426;-67
2023/04/23 11:32:52;;;;;;;4.40;1.30;;;;;;;27.14;20.51;100269.42;105533;1254;65538;-67
2023/04/23 11:35:38;;;;;;;1.50;1.30;;;;;;;27.24;20.65;100267.38;105561;1259;60409;-67